Time;durP1;ratioP1;P1;durP2;ratioP2;P2;SDS_P1;SDS_P2;PMS_P1;PMS_P2;Temp;Humidity;BMP_temperature;BMP_pressure;BME280_temperature;BME280_humidity;BME280_pressure;Samples;Min_cycle;Max_cycle;Signal;HPM_P1;HPM_P2
2023/07/13 00:01:38;;;;;;;;;;;;;;;5.61;100.00;99669.44;4988397;28;20293;-84
2023/07/13 00:04:04;;;;;;;;;;;;;;;5.63;100.00;99667.66;4993527;28;19929;-84
2023/07/13 00:06:32;;;;;;;;;;;;;;;5.61;100.00;99668.59;5011929;28;19925;-84
2023/07/13 00:08:57;;;;;;;;;;;;;;;5.67;100.00;99664.97;4994177;28;20013;-84
2023/07/13 00:11:23;;;;;;;;;;;;;;;5.59;100.00;99658.13;5013699;28;20020;-84
2023/07/13 00:13:48;;;;;;;;;;;;;;;5.56;100.00;99655.56;5005383;28;19921;-84
2023/07/13 00:16:13;;;;;;;;;;;;;;;5.59;100.00;99655.50;4993915;28;20044;-84
2023/07/13 00:18:39;;;;;;;;;;;;;;;5.56;100.00;99654.72;4993713;28;19956;-84
2023/07/13 07:51:32;;;;;;;;;;;;;;;5.33;100.00;99870.69;5183729;23;19925;-82
2023/07/13 07:53:57;;;;;;;;;;;;;;;5.27;100.00;99866.44;4996361;28;19925;-83
2023/07/13 07:56:22;;;;;;;;;;;;;;;5.33;100.00;99879.47;5014132;28;19918;-85
2023/07/13 07:58:48;;;;;;;;;;;;;;;5.31;100.00;99875.97;5013907;28;19992;-83
2023/07/13 08:01:13;;;;;;;;;;;;;;;5.24;100.00;99875.25;4996673;28;20331;-81
2023/07/13 08:03:38;;;;;;;;;;;;;;;5.19;100.00;99882.34;5013991;28;19920;-83
2023/07/13 08:06:04;;;;;;;;;;;;;;;5.24;100.00;99870.00;5012056;28;19925;-83
2023/07/13 08:08:29;;;;;;;;;;;;;;;5.27;100.00;99875.19;4996177;28;19918;-85
2023/07/13 08:10:54;;;;;;;;;;;;;;;5.17;100.00;99878.91;5013856;28;19917;-85
2023/07/13 08:13:20;;;;;;;;;;;;;;;5.21;100.00;99872.69;5013702;28;20020;-83
2023/07/13 08:15:46;;;;;;;;;;;;;;;5.14;100.00;99876.34;4996168;28;20004;-84
2023/07/13 08:18:11;;;;;;;;;;;;;;;5.21;100.00;99875.31;5013512;28;19971;-83
2023/07/13 08:20:37;;;;;;;;;;;;;;;5.17;100.00;99865.75;5012355;28;19917;-83
2023/07/13 08:23:02;;;;;;;;;;;;;;;5.17;100.00;99863.13;4995945;28;19917;-85
2023/07/13 08:25:27;;;;;;;;;;;;;;;5.19;100.00;99871.84;5013654;28;19921;-83
2023/07/13 08:27:53;;;;;;;;;;;;;;;5.14;100.00;99867.56;5013325;28;19971;-83
2023/07/13 08:30:18;;;;;;;;;;;;;;;5.07;100.00;99861.56;4995816;28;19927;-83
2023/07/13 08:32:43;;;;;;;;;;;;;;;5.14;100.00;99868.44;5013322;28;20009;-84
2023/07/13 08:35:08;;;;;;;;;;;;;;;5.04;100.00;99865.13;5012121;28;19995;-88
2023/07/13 08:37:34;;;;;;;;;;;;;;;5.17;100.00;99871.03;4995672;28;19925;-84
2023/07/13 08:39:59;;;;;;;;;;;;;;;5.13;100.00;99876.34;5013234;28;20332;-83
2023/07/13 08:42:32;;;;;;;;;;;;;;;5.19;100.00;99869.22;5013217;28;19967;-83
2023/07/13 08:45:06;;;;;;;;;;;;;;;5.06;100.00;99859.84;5011043;28;19984;-88
2023/07/13 08:47:35;;;;;;;;;;;;;;;5.03;100.00;99867.78;4995544;28;19917;-84
2023/07/13 08:50:01;;;;;;;;;;;;;;;5.04;100.00;99873.03;5011785;28;20024;-84
2023/07/13 08:52:32;;;;;;;;;;;;;;;7.69;100.00;99864.91;4995412;28;20012;-85
2023/07/13 08:55:02;;;;;;;;;;;;;;;14.21;100.00;99850.22;5012699;28;20361;-86
2023/07/13 08:57:34;;;;;;;;;;;;;;;14.62;100.00;99836.34;4995940;28;19918;-90
2023/07/13 08:59:59;;;;;;;;;;;;;;;15.17;100.00;99842.00;5013327;28;19928;-85
2023/07/13 09:02:31;;;;;;;;;;;;;;;13.63;100.00;99849.03;5012980;28;19917;-83
2023/07/13 09:04:59;;;;;;;;;;;;;;;11.54;100.00;99860.28;5010583;28;20391;-84
2023/07/13 09:07:40;;;;;;;;;;;;;;;10.49;100.00;99870.09;5012919;28;20000;-84
2023/07/13 09:10:13;;;;;;;;;;;;;;;9.45;100.00;99878.50;5012790;28;20007;-84
2023/07/13 09:12:51;;;;;;;;;;;;;;;11.31;100.00;99856.00;5012034;28;20067;-82
2023/07/13 09:15:23;;;;;;;;;;;;;;;9.27;100.00;99862.38;5012709;28;19925;-83
2023/07/13 09:17:50;;;;;;;;;;;;;;;8.83;100.00;99862.16;5010969;28;19925;-82
2023/07/13 09:20:25;;;;;;;;;;;;;;;8.72;100.00;99864.31;4993649;28;19917;-82
2023/07/13 09:22:50;;;;;;;;;;;;;;;8.37;100.00;99866.31;5012073;28;19984;-86
2023/07/13 09:25:19;;;;;;;;;;;;;;;8.36;100.00;99864.59;5012449;28;19949;-84
2023/07/13 09:27:45;;;;;;;;;;;;;;;8.27;100.00;99860.47;5012499;28;20400;-85
2023/07/13 09:30:14;;;;;;;;;;;;;;;8.16;100.00;99863.44;4994887;28;20013;-86
2023/07/13 09:32:44;;;;;;;;;;;;;;;8.04;100.00;99853.28;5011669;28;19963;-85
2023/07/13 09:35:15;;;;;;;;;;;;;;;8.08;100.00;99861.97;5010534;28;19964;-88
2023/07/13 09:37:43;;;;;;;;;;;;;;;7.96;100.00;99853.53;5011844;28;19932;-83
2023/07/13 09:40:14;;;;;;;;;;;;;;;7.92;100.00;99856.31;5012254;28;19992;-84
2023/07/13 09:42:40;;;;;;;;;;;;;;;7.90;100.00;99853.72;5011707;28;20008;-84
2023/07/13 09:45:09;;;;;;;;;;;;;;;7.89;100.00;99851.97;5012293;28;20053;-83
2023/07/13 09:47:38;;;;;;;;;;;;;;;7.81;100.00;99865.41;5012336;28;19921;-83
2023/07/13 09:50:06;;;;;;;;;;;;;;;7.79;100.00;99861.94;5010508;28;19917;-84
2023/07/13 09:52:42;;;;;;;;;;;;;;;7.86;100.00;99864.41;5011357;28;19944;-85
2023/07/13 09:55:23;;;;;;;;;;;;;;;7.82;100.00;99858.38;5012251;28;19960;-84
2023/07/13 09:57:49;;;;;;;;;;;;;;;7.84;100.00;99869.72;5011863;28;19918;-84
2023/07/13 10:00:20;;;;;;;;;;;;;;;7.82;100.00;99864.50;5012219;28;19928;-83
2023/07/13 10:02:46;;;;;;;;;;;;;;;7.76;100.00;99869.09;5012041;28;19928;-83
2023/07/13 10:05:13;;;;;;;;;;;;;;;7.75;100.00;99870.00;5009987;28;19917;-84
2023/07/13 10:07:39;;;;;;;;;;;;;;;7.73;100.00;99859.50;5012004;28;19918;-84
2023/07/13 10:10:12;;;;;;;;;;;;;;;7.76;100.00;99867.31;5011909;28;19921;-83
2023/07/13 10:12:38;;;;;;;;;;;;;;;7.80;100.00;99871.59;5011877;28;19924;-84
2023/07/13 10:15:09;;;;;;;;;;;;;;;7.73;100.00;99866.56;5011896;28;19929;-84
2023/07/13 10:17:34;;;;;;;;;;;;;;;7.76;100.00;99866.47;5011463;28;20483;-83
2023/07/13 10:20:03;;;;;;;;;;;;;;;7.65;100.00;99858.88;5010362;28;19926;-83
2023/07/13 10:22:49;;;;;;;;;;;;;;;7.69;100.00;99857.88;5011930;28;19917;-83
2023/07/13 10:25:17;;;;;;;;;;;;;;;7.75;100.00;99859.44;5011379;28;19954;-83
2023/07/13 10:27:42;;;;;;;;;;;;;;;7.70;100.00;99848.19;5011981;28;19917;-83
2023/07/13 10:30:25;;;;;;;;;;;;;;;7.70;100.00;99861.38;5014337;28;20407;-83
2023/07/13 10:32:52;;;;;;;;;;;;;;;7.72;100.00;99855.16;5015572;28;20019;-83
2023/07/13 10:35:18;;;;;;;;;;;;;;;7.60;100.00;99877.47;5014251;28;19917;-83
2023/07/13 10:37:52;;;;;;;;;;;;;;;7.71;100.00;99866.59;5014804;28;19917;-83
2023/07/13 10:40:25;;;;;;;;;;;;;;;7.62;100.00;99875.63;5015000;28;19922;-84
2023/07/13 10:42:52;;;;;;;;;;;;;;;7.62;100.00;99872.13;5015357;28;19980;-83
2023/07/13 10:45:20;;;;;;;;;;;;;;;7.64;100.00;99868.56;5015506;28;20372;-83
2023/07/13 10:47:46;;;;;;;;;;;;;;;7.65;100.00;99879.97;5014768;28;20428;-84
2023/07/13 10:50:22;;;;;;;;;;;;;;;7.60;100.00;99877.47;4996383;28;20037;-83
2023/07/13 10:52:50;;;;;;;;;;;;;;;7.64;100.00;99873.84;5014680;28;19926;-84
2023/07/13 10:55:35;;;;;;;;;;;;;;;7.64;100.00;99859.75;5014350;28;19997;-84
2023/07/13 10:58:09;;;;;;;;;;;;;;;7.59;100.00;99870.44;5015219;28;19921;-85
2023/07/13 11:00:42;;;;;;;;;;;;;;;7.57;100.00;99871.41;5015223;28;19917;-85
2023/07/13 11:03:13;;;;;;;;;;;;;;;7.57;100.00;99871.41;5013253;28;19917;-86
2023/07/13 11:05:40;;;;;;;;;;;;;;;7.60;100.00;99866.91;5013905;28;19927;-83
2023/07/13 11:08:32;;;;;;;;;;;;;;;7.62;100.00;99872.13;5014256;28;19914;-82
2023/07/13 11:10:57;;;;;;;;;;;;;;;7.53;100.00;99868.00;4996670;28;19917;-91
2023/07/13 11:13:49;;;;;;;;;;;;;;;7.60;100.00;99869.53;5013158;28;19918;-83
2023/07/13 11:16:17;;;;;;;;;;;;;;;7.59;100.00;99869.59;5010567;28;19929;-81
2023/07/13 11:18:52;;;;;;;;;;;;;;;7.57;100.00;99864.34;5014937;28;19917;-82
2023/07/13 11:21:18;;;;;;;;;;;;;;;7.60;100.00;99866.91;5013438;28;20296;-84
2023/07/13 11:23:45;;;;;;;;;;;;;;;7.52;100.00;99862.78;5014713;28;20458;-84
2023/07/13 11:26:29;;;;;;;;;;;;;;;7.58;100.00;99876.66;5014627;28;19928;-85
2023/07/13 11:28:54;;;;;;;;;;;;;;;7.57;100.00;99884.59;5013234;28;19918;-84
2023/07/13 11:31:22;;;;;;;;;;;;;;;7.57;100.00;99871.41;5014437;28;19924;-85
2023/07/13 11:33:52;;;;;;;;;;;;;;;7.54;100.00;99871.50;5014758;28;19924;-84
2023/07/13 11:36:23;;;;;;;;;;;;;;;7.57;100.00;99871.41;4994786;28;19924;-84
2023/07/13 11:39:00;;;;;;;;;;;;;;;7.56;100.00;99869.69;5013714;28;19925;-84
2023/07/13 11:41:31;;;;;;;;;;;;;;;7.44;100.00;99869.13;5013288;28;19972;-84
2023/07/13 11:44:02;;;;;;;;;;;;;;;7.51;100.00;99866.31;4996683;28;20387;-84
2023/07/13 11:46:28;;;;;;;;;;;;;;;7.43;100.00;99877.94;5014377;28;19979;-84
2023/07/13 11:48:54;;;;;;;;;;;;;;;7.38;100.00;99873.72;5014199;28;20056;-83
2023/07/13 11:51:28;;;;;;;;;;;;;;;7.35;100.00;99872.00;4995091;28;19925;-84
2023/07/13 11:53:54;;;;;;;;;;;;;;;7.36;100.00;99881.66;5013889;28;19917;-83
2023/07/13 11:56:19;;;;;;;;;;;;;;;7.35;100.00;99879.91;5013266;28;19917;-84
2023/07/13 11:58:48;;;;;;;;;;;;;;;7.29;100.00;99880.09;4996475;28;20284;-85
2023/07/13 12:01:35;;;;;;;;;;;;;;;7.33;100.00;99879.13;5013890;28;20014;-84
2023/07/13 12:04:03;;;;;;;;;;;;;;;7.41;100.00;99881.53;5013131;28;20027;-84
2023/07/13 12:06:40;;;;;;;;;;;;;;;7.35;100.00;99882.56;4995076;28;19925;-88
2023/07/13 12:09:15;;;;;;;;;;;;;;;7.38;100.00;99893.03;5013512;28;19924;-85
2023/07/13 12:11:42;;;;;;;;;;;;;;;7.24;100.00;99882.88;5012969;28;19932;-84
2023/07/13 12:14:16;;;;;;;;;;;;;;;7.22;100.00;99875.91;5012323;28;19940;-84
2023/07/13 12:16:42;;;;;;;;;;;;;;;7.21;100.00;99880.34;5013049;28;19917;-85
2023/07/13 12:19:17;;;;;;;;;;;;;;;7.23;100.00;99888.19;5013572;28;19987;-84
2023/07/13 12:21:43;;;;;;;;;;;;;;;7.18;100.00;99879.53;5010283;28;19944;-87
2023/07/13 12:24:14;;;;;;;;;;;;;;;7.22;100.00;99879.41;5013346;28;19925;-88
2023/07/13 12:26:39;;;;;;;;;;;;;;;7.19;100.00;99876.00;5013310;28;19924;-86
2023/07/13 12:29:05;;;;;;;;;;;;;;;7.05;100.00;99874.63;4995814;28;20342;-85
2023/07/13 12:31:42;;;;;;;;;;;;;;;7.16;100.00;99874.28;5013573;28;19917;-87
2023/07/13 12:34:12;;;;;;;;;;;;;;;7.18;100.00;99884.78;5013550;28;20008;-83
2023/07/13 12:36:40;;;;;;;;;;;;;;;7.07;100.00;99888.59;4994398;28;19921;-84
2023/07/13 12:39:23;;;;;;;;;;;;;;;7.23;100.00;99885.56;5013230;28;19921;-85
2023/07/13 12:41:49;;;;;;;;;;;;;;;7.16;100.00;99886.63;5013276;28;19925;-85
2023/07/13 12:44:16;;;;;;;;;;;;;;;7.15;100.00;99882.25;4995564;28;19922;-88
2023/07/13 12:46:53;;;;;;;;;;;;;;;7.22;100.00;99886.44;5013209;28;20337;-89
2023/07/13 12:49:22;;;;;;;;;;;;;;;7.16;100.00;99890.09;5013255;28;19921;-91
2023/07/13 12:51:49;;;;;;;;;;;;;;;7.22;100.00;99894.34;4994596;28;20397;-83
2023/07/13 12:54:18;;;;;;;;;;;;;;;7.21;100.00;99893.50;5012374;28;20016;-82
2023/07/13 12:56:44;;;;;;;;;;;;;;;7.16;100.00;99886.63;5012259;28;19914;-84
2023/07/13 12:59:15;;;;;;;;;;;;;;;7.13;100.00;99886.69;4995147;28;20408;-83
2023/07/13 13:01:41;;;;;;;;;;;;;;;7.06;100.00;99876.31;5012882;28;19917;-84
2023/07/13 13:04:11;;;;;;;;;;;;;;;7.04;100.00;99870.25;5012835;28;20280;-84
2023/07/13 13:06:37;;;;;;;;;;;;;;;7.05;100.00;99879.00;4993861;28;20015;-84
2023/07/13 13:09:03;;;;;;;;;;;;;;;7.03;100.00;99879.03;5012606;28;19919;-83
2023/07/13 13:11:30;;;;;;;;;;;;;;;6.99;100.00;99873.88;5012606;28;19921;-83
2023/07/13 13:13:55;;;;;;;;;;;;;;;6.97;100.00;99865.16;5010517;28;19963;-83
2023/07/13 13:16:21;;;;;;;;;;;;;;;7.03;100.00;99871.13;5012617;28;19921;-84
2023/07/13 13:18:47;;;;;;;;;;;;;;;7.02;100.00;99869.44;5012642;28;20389;-83
2023/07/13 13:21:12;;;;;;;;;;;;;;;7.03;100.00;99870.28;4993577;28;19943;-83
2023/07/13 13:23:38;;;;;;;;;;;;;;;6.97;100.00;99866.03;5012677;28;19922;-81
2023/07/13 13:26:05;;;;;;;;;;;;;;;6.93;100.00;99869.66;5012508;28;19956;-83
2023/07/13 13:28:32;;;;;;;;;;;;;;;7.06;100.00;99878.09;4994816;28;19921;-81
2023/07/13 13:30:57;;;;;;;;;;;;;;;6.88;100.00;99871.56;5011719;28;19948;-82
2023/07/13 13:33:23;;;;;;;;;;;;;;;6.95;100.00;99870.47;5012119;28;20011;-81
2023/07/13 13:35:49;;;;;;;;;;;;;;;6.94;100.00;99876.69;4993547;28;19922;-86
2023/07/13 13:38:16;;;;;;;;;;;;;;;6.99;100.00;99872.13;5012103;28;19984;-83
2023/07/13 13:40:42;;;;;;;;;;;;;;;6.96;100.00;99863.47;5012238;28;19921;-83
2023/07/13 13:43:18;;;;;;;;;;;;;;;6.97;100.00;99867.81;4993780;28;19925;-82
2023/07/13 13:45:44;;;;;;;;;;;;;;;6.97;100.00;99866.03;5012228;28;20417;-82
2023/07/13 13:48:14;;;;;;;;;;;;;;;6.87;100.00;99867.19;5012210;28;20063;-82
2023/07/13 13:50:40;;;;;;;;;;;;;;;6.96;100.00;99866.94;4993121;28;19929;-82
2023/07/13 13:53:07;;;;;;;;;;;;;;;6.96;100.00;99863.47;5011993;28;20391;-87
2023/07/13 13:55:33;;;;;;;;;;;;;;;6.88;100.00;99855.75;5011820;28;19927;-82
2023/07/13 13:57:58;;;;;;;;;;;;;;;6.86;100.00;99862.81;5012061;28;19917;-82
2023/07/13 14:00:24;;;;;;;;;;;;;;;6.84;100.00;99864.63;5011948;28;20288;-83
2023/07/13 14:02:51;;;;;;;;;;;;;;;6.86;100.00;99855.78;5012096;28;19920;-81
2023/07/13 14:05:26;;;;;;;;;;;;;;;6.84;100.00;99860.22;4995101;28;20293;-83
2023/07/13 14:07:52;;;;;;;;;;;;;;;6.79;100.00;99858.63;5015377;28;19925;-82
2023/07/13 14:10:18;;;;;;;;;;;;;;;6.84;100.00;99854.94;5016097;28;19960;-82
2023/07/13 14:12:45;;;;;;;;;;;;;;;6.90;100.00;99859.22;4998111;28;19969;-82
2023/07/13 14:15:17;;;;;;;;;;;;;;;6.92;100.00;99865.28;5012012;28;19922;-89
2023/07/13 14:17:43;;;;;;;;;;;;;;;7.02;100.00;99863.28;5015208;28;20008;-84
2023/07/13 14:20:12;;;;;;;;;;;;;;;6.90;100.00;99853.94;4996140;28;19918;-83
2023/07/13 14:22:37;;;;;;;;;;;;;;;6.89;100.00;99862.72;5015463;28;20000;-82
2023/07/13 14:25:03;;;;;;;;;;;;;;;6.99;100.00;99872.13;5012632;28;20020;-82
2023/07/13 14:27:28;;;;;;;;;;;;;;;6.92;100.00;99878.47;5012652;28;19928;-82
2023/07/13 14:29:53;;;;;;;;;;;;;;;6.97;100.00;99873.94;5014347;28;19922;-84
2023/07/13 14:32:19;;;;;;;;;;;;;;;6.94;100.00;99871.41;5013784;28;19921;-82
2023/07/13 14:34:44;;;;;;;;;;;;;;;6.99;100.00;99879.16;4996564;28;19926;-81
2023/07/13 14:37:14;;;;;;;;;;;;;;;7.03;100.00;99868.50;5015475;28;19956;-81
2023/07/13 14:39:41;;;;;;;;;;;;;;;6.71;100.00;99867.56;5015400;28;19918;-82
2023/07/13 14:42:08;;;;;;;;;;;;;;;6.81;100.00;99859.44;4997388;28;20008;-82
2023/07/13 14:44:34;;;;;;;;;;;;;;;6.75;100.00;99854.34;5015243;28;19976;-82
2023/07/13 14:47:01;;;;;;;;;;;;;;;6.87;100.00;99848.75;5015069;28;19921;-83
2023/07/13 14:49:31;;;;;;;;;;;;;;;6.69;100.00;99845.69;4996369;28;19953;-82
2023/07/13 14:51:58;;;;;;;;;;;;;;;6.73;100.00;99839.44;5014387;28;20023;-82
2023/07/13 14:54:23;;;;;;;;;;;;;;;6.67;100.00;99836.97;5014366;28;19918;-83
2023/07/13 14:56:48;;;;;;;;;;;;;;;6.80;100.00;99844.56;5015170;28;19968;-83
2023/07/13 14:59:14;;;;;;;;;;;;;;;6.77;100.00;99849.91;5015019;28;19921;-82
2023/07/13 15:01:40;;;;;;;;;;;;;;;6.69;100.00;99850.09;5014768;28;19917;-82
2023/07/13 15:04:05;;;;;;;;;;;;;;;6.82;100.00;99854.13;4997422;28;20324;-81
2023/07/13 15:06:31;;;;;;;;;;;;;;;6.71;100.00;99843.03;5013677;28;19921;-82
2023/07/13 15:08:56;;;;;;;;;;;;;;;6.73;100.00;99846.47;5014806;28;19922;-82
2023/07/13 15:11:22;;;;;;;;;;;;;;;6.86;100.00;99853.16;4996947;28;20273;-82
2023/07/13 15:13:48;;;;;;;;;;;;;;;6.91;100.00;99855.69;5015004;28;19981;-82
2023/07/13 15:16:18;;;;;;;;;;;;;;;6.81;100.00;99848.91;5013322;28;19921;-83
2023/07/13 15:18:44;;;;;;;;;;;;;;;6.66;100.00;99848.41;4994328;28;20372;-85
2023/07/13 15:21:15;;;;;;;;;;;;;;;6.69;100.00;99835.16;5013497;28;19972;-83
2023/07/13 15:23:41;;;;;;;;;;;;;;;6.82;100.00;99846.22;5013808;28;20411;-82
2023/07/13 15:26:11;;;;;;;;;;;;;;;6.67;100.00;99838.72;4995312;28;19968;-82
2023/07/13 15:28:36;;;;;;;;;;;;;;;6.80;100.00;99836.66;5013766;28;19921;-81
2023/07/13 15:31:01;;;;;;;;;;;;;;;6.71;100.00;99837.75;5013300;28;19924;-81
2023/07/13 15:33:28;;;;;;;;;;;;;;;6.72;100.00;99840.34;5013621;28;19925;-81
2023/07/13 15:35:54;;;;;;;;;;;;;;;6.64;100.00;99847.59;5030757;23;19929;-81
2023/07/13 15:38:24;;;;;;;;;;;;;;;6.75;100.00;99841.16;4983049;28;20549;-85
2023/07/13 15:40:50;;;;;;;;;;;;;;;6.66;100.00;99844.91;5003505;28;19930;-84
2023/07/13 15:43:16;;;;;;;;;;;;;;;6.65;100.00;99845.81;5002224;28;20018;-87
2023/07/13 15:45:45;;;;;;;;;;;;;;;6.63;100.00;99850.25;5001336;28;19926;-82
2023/07/13 15:48:24;;;;;;;;;;;;;;;6.61;100.00;99852.06;5002037;28;19964;-81
2023/07/13 15:50:53;;;;;;;;;;;;;;;6.61;100.00;99847.66;4999956;28;19921;-86
2023/07/13 15:53:23;;;;;;;;;;;;;;;6.61;100.00;99846.81;5003052;28;19925;-85
2023/07/13 15:55:49;;;;;;;;;;;;;;;6.58;100.00;99846.88;5001149;28;19926;-81
2023/07/13 15:58:15;;;;;;;;;;;;;;;6.69;100.00;99840.44;5003942;28;20348;-86
2023/07/13 16:00:41;;;;;;;;;;;;;;;6.59;100.00;99836.31;4999889;28;19925;-83
2023/07/13 16:03:07;;;;;;;;;;;;;;;6.64;100.00;99834.41;5002246;28;19926;-81
2023/07/13 16:05:33;;;;;;;;;;;;;;;6.66;100.00;99824.72;5000632;28;19925;-81
2023/07/13 16:07:58;;;;;;;;;;;;;;;6.59;100.00;99817.88;4999918;28;19961;-87
2023/07/13 16:10:30;;;;;;;;;;;;;;;6.63;100.00;99818.66;4999986;28;19975;-82
2023/07/13 16:12:56;;;;;;;;;;;;;;;6.60;100.00;99824.00;5001584;28;19921;-81
2023/07/13 16:15:22;;;;;;;;;;;;;;;6.56;100.00;99831.13;5000796;28;19926;-86
2023/07/13 16:17:48;;;;;;;;;;;;;;;6.63;100.00;99819.53;5002739;28;19928;-84
2023/07/13 16:20:14;;;;;;;;;;;;;;;6.60;100.00;99819.59;4999489;28;19929;-89
2023/07/13 16:22:41;;;;;;;;;;;;;;;6.65;100.00;99819.47;4999001;28;19922;-85
2023/07/13 16:25:18;;;;;;;;;;;;;;;6.61;100.00;99820.47;5003347;28;20285;-86
2023/07/13 16:27:43;;;;;;;;;;;;;;;6.68;100.00;99824.66;4999688;28;19925;-83
2023/07/13 16:30:13;;;;;;;;;;;;;;;6.53;100.00;99818.91;4997796;28;19928;-86
2023/07/13 16:32:38;;;;;;;;;;;;;;;6.58;100.00;99817.94;4997053;28;19940;-85
2023/07/13 16:35:04;;;;;;;;;;;;;;;6.57;100.00;99813.56;4998537;28;19930;-82
2023/07/13 16:37:30;;;;;;;;;;;;;;;6.63;100.00;99823.94;4985572;28;20334;-82
2023/07/13 16:39:58;;;;;;;;;;;;;;;6.60;100.00;99824.84;4982244;28;19930;-82
2023/07/13 16:42:23;;;;;;;;;;;;;;;6.57;100.00;99832.84;4978987;28;19971;-82
2023/07/13 16:44:51;;;;;;;;;;;;;;;6.49;100.00;99835.69;4977235;28;19931;-83
2023/07/13 16:47:17;;;;;;;;;;;;;;;6.51;100.00;99827.72;4977433;28;20396;-84
2023/07/13 16:49:43;;;;;;;;;;;;;;;6.51;100.00;99830.34;4978304;28;19926;-85
2023/07/13 16:52:13;;;;;;;;;;;;;;;6.49;100.00;99826.91;4980617;28;19969;-84
2023/07/13 16:54:38;;;;;;;;;;;;;;;6.55;100.00;99835.50;4990332;28;19918;-85
2023/07/13 16:57:25;;;;;;;;;;;;;;;6.54;100.00;99835.53;4983171;28;19936;-83
2023/07/13 16:59:51;;;;;;;;;;;;;;;6.54;100.00;99836.44;4986520;28;19980;-85
2023/07/13 17:02:38;;;;;;;;;;;;;;;6.56;100.00;99839.03;4964097;28;19933;-85
2023/07/13 17:05:05;;;;;;;;;;;;;;;6.53;100.00;99839.09;4980325;28;19984;-84
2023/07/13 17:07:30;;;;;;;;;;;;;;;6.53;100.00;99833.84;4982370;28;19973;-82
2023/07/13 17:09:56;;;;;;;;;;;;;;;6.57;100.00;99832.84;4987567;28;19985;-86
2023/07/13 17:12:22;;;;;;;;;;;;;;;6.50;100.00;99831.28;4986687;28;19977;-81
2023/07/13 17:14:48;;;;;;;;;;;;;;;6.47;100.00;99836.63;4983526;28;20359;-84
2023/07/13 17:17:15;;;;;;;;;;;;;;;6.51;100.00;99833.00;4972466;28;19928;-81
2023/07/13 17:19:41;;;;;;;;;;;;;;;6.57;100.00;99832.84;4988313;28;19918;-83
2023/07/13 17:22:16;;;;;;;;;;;;;;;6.47;100.00;99836.63;4991622;28;19979;-86
2023/07/13 17:24:44;;;;;;;;;;;;;;;6.42;100.00;99827.97;4988235;28;20265;-86
2023/07/13 17:27:09;;;;;;;;;;;;;;;6.46;100.00;99827.88;4984274;28;19930;-85
2023/07/13 17:29:36;;;;;;;;;;;;;;;6.46;100.00;99827.88;4982479;28;19930;-87
2023/07/13 17:32:02;;;;;;;;;;;;;;;6.43;100.00;99832.31;4984651;28;19934;-82
2023/07/13 17:34:28;;;;;;;;;;;;;;;6.45;100.00;99835.81;4974844;28;19929;-85
2023/07/13 17:36:53;;;;;;;;;;;;;;;6.38;100.00;99832.44;4991033;28;19925;-84
2023/07/13 17:39:19;;;;;;;;;;;;;;;6.42;100.00;99841.16;4993449;28;20285;-83
2023/07/13 17:41:45;;;;;;;;;;;;;;;6.33;100.00;99832.56;4996740;28;19922;-83
2023/07/13 17:44:18;;;;;;;;;;;;;;;6.38;100.00;99835.06;4996528;28;19928;-87
2023/07/13 17:46:47;;;;;;;;;;;;;;;6.41;100.00;99835.00;4995389;28;19968;-82
2023/07/13 17:49:19;;;;;;;;;;;;;;;6.38;100.00;99836.84;4995807;28;19921;-82
2023/07/13 17:51:44;;;;;;;;;;;;;;;6.40;100.00;99821.88;4998804;28;19925;-80
2023/07/13 17:54:13;;;;;;;;;;;;;;;6.26;100.00;99825.72;4977151;28;19925;-81
2023/07/13 17:56:38;;;;;;;;;;;;;;;6.33;100.00;99829.94;4998198;28;19933;-82
2023/07/13 17:59:04;;;;;;;;;;;;;;;6.26;100.00;99836.25;5001029;28;19922;-81
2023/07/13 18:01:30;;;;;;;;;;;;;;;6.25;100.00;99837.13;4978648;28;19925;-82
2023/07/13 18:03:57;;;;;;;;;;;;;;;6.31;100.00;99844.88;4999577;28;20435;-87
2023/07/13 18:06:34;;;;;;;;;;;;;;;6.30;100.00;99845.81;4998158;28;20008;-88
2023/07/13 18:09:00;;;;;;;;;;;;;;;6.26;100.00;99844.13;4999355;28;20016;-86
2023/07/13 18:11:26;;;;;;;;;;;;;;;6.26;100.00;99845.91;5001344;28;20013;-81
2023/07/13 18:13:51;;;;;;;;;;;;;;;6.27;100.00;99845.88;5000083;28;19932;-82
2023/07/13 18:16:19;;;;;;;;;;;;;;;6.33;100.00;99843.09;4981728;28;19925;-82
2023/07/13 18:18:44;;;;;;;;;;;;;;;6.29;100.00;99844.06;5000727;28;20365;-83
2023/07/13 18:21:10;;;;;;;;;;;;;;;6.29;100.00;99845.84;4997561;28;19925;-83
2023/07/13 18:23:35;;;;;;;;;;;;;;;6.21;100.00;99842.50;4989576;28;19983;-85
2023/07/13 18:26:01;;;;;;;;;;;;;;;6.24;100.00;99840.69;4999769;28;19995;-85
2023/07/13 18:28:26;;;;;;;;;;;;;;;6.23;100.00;99836.31;5002390;28;19930;-84
2023/07/13 18:30:55;;;;;;;;;;;;;;;6.17;100.00;99839.97;4982246;28;20281;-84
2023/07/13 18:33:22;;;;;;;;;;;;;;;6.14;100.00;99852.31;5001071;28;19972;-85
2023/07/13 18:35:47;;;;;;;;;;;;;;;6.20;100.00;99852.19;4996159;28;20396;-86
2023/07/13 18:38:19;;;;;;;;;;;;;;;6.17;100.00;99852.25;4999868;28;19922;-84
2023/07/13 18:40:45;;;;;;;;;;;;;;;6.22;100.00;99844.25;5001849;28;20308;-83
2023/07/13 18:43:11;;;;;;;;;;;;;;;6.15;100.00;99843.53;4999731;28;19922;-87
2023/07/13 18:45:36;;;;;;;;;;;;;;;6.16;100.00;99846.13;4980164;28;20008;-88
2023/07/13 18:48:02;;;;;;;;;;;;;;;6.12;100.00;99848.88;4999767;28;19925;-82
2023/07/13 18:50:35;;;;;;;;;;;;;;;6.10;100.00;99854.16;4998372;28;20392;-82
2023/07/13 18:53:01;;;;;;;;;;;;;;;6.16;100.00;99845.28;4987985;28;20008;-83
2023/07/13 18:55:28;;;;;;;;;;;;;;;6.07;100.00;99843.72;5001613;28;20218;-81
2023/07/13 18:57:58;;;;;;;;;;;;;;;6.05;100.00;99850.78;5002592;28;19972;-83
2023/07/13 19:00:27;;;;;;;;;;;;;;;6.05;100.00;99856.03;5003342;28;19926;-84
2023/07/13 19:02:53;;;;;;;;;;;;;;;6.08;100.00;99862.97;5004694;28;19933;-86
2023/07/13 19:05:23;;;;;;;;;;;;;;;6.07;100.00;99856.88;5001801;28;19921;-83
2023/07/13 19:07:56;;;;;;;;;;;;;;;6.15;100.00;99859.31;5001064;28;19921;-84
2023/07/13 19:10:22;;;;;;;;;;;;;;;6.04;100.00;99861.34;4998144;28;19926;-82
2023/07/13 19:12:52;;;;;;;;;;;;;;;6.09;100.00;99864.72;5003063;28;19921;-81
2023/07/13 19:15:17;;;;;;;;;;;;;;;6.08;100.00;99868.25;5001399;28;19922;-80
2023/07/13 19:17:43;;;;;;;;;;;;;;;6.06;100.00;99863.00;5000061;28;19925;-80
2023/07/13 19:20:11;;;;;;;;;;;;;;;6.06;100.00;99865.66;4981884;28;19929;-80
2023/07/13 19:22:37;;;;;;;;;;;;;;;6.09;100.00;99867.34;4997202;28;20020;-81
2023/07/13 19:25:03;;;;;;;;;;;;;;;6.04;100.00;99862.19;5003226;28;20016;-83
2023/07/13 19:27:29;;;;;;;;;;;;;;;6.08;100.00;99868.25;4987455;28;20012;-81
2023/07/13 19:29:54;;;;;;;;;;;;;;;5.98;100.00;99865.84;4999594;28;19929;-81
2023/07/13 19:32:20;;;;;;;;;;;;;;;6.06;100.00;99864.78;5000893;28;20357;-81
2023/07/13 19:34:45;;;;;;;;;;;;;;;6.00;100.00;99863.19;4982677;28;19965;-81
2023/07/13 19:37:31;;;;;;;;;;;;;;;6.07;100.00;99870.03;5002411;28;19922;-82
2023/07/13 19:39:57;;;;;;;;;;;;;;;5.92;100.00;99868.59;5000450;28;19931;-81
2023/07/13 19:42:23;;;;;;;;;;;;;;;5.91;100.00;99876.50;4985151;28;20343;-82
2023/07/13 19:44:51;;;;;;;;;;;;;;;5.90;100.00;99875.63;5001351;28;20004;-83
2023/07/13 19:47:17;;;;;;;;;;;;;;;5.91;100.00;99877.34;5000136;28;19922;-81
2023/07/13 19:49:45;;;;;;;;;;;;;;;5.87;100.00;99869.56;5001517;28;19921;-85
2023/07/13 19:52:11;;;;;;;;;;;;;;;5.99;100.00;99878.09;4985214;28;19977;-82
2023/07/13 19:54:41;;;;;;;;;;;;;;;5.94;100.00;99868.53;4998367;28;19936;-82
2023/07/13 19:57:09;;;;;;;;;;;;;;;5.93;100.00;99875.56;5001890;28;19944;-82
2023/07/13 19:59:34;;;;;;;;;;;;;;;5.93;100.00;99886.06;5002771;28;19932;-84
2023/07/13 20:02:02;;;;;;;;;;;;;;;5.93;100.00;99882.59;5003530;28;19925;-82
2023/07/13 20:04:27;;;;;;;;;;;;;;;5.95;100.00;99886.94;4997613;28;19925;-81
2023/07/13 20:06:52;;;;;;;;;;;;;;;5.93;100.00;99896.59;5003436;28;20380;-82
2023/07/13 20:09:23;;;;;;;;;;;;;;;5.94;100.00;99893.06;5001194;28;19932;-83
2023/07/13 20:11:49;;;;;;;;;;;;;;;6.02;100.00;99899.97;5004202;28;19922;-82
2023/07/13 20:14:17;;;;;;;;;;;;;;;5.97;100.00;99902.72;5001137;28;20704;-83
2023/07/13 20:16:42;;;;;;;;;;;;;;;5.93;100.00;99901.84;5000691;28;20004;-84
2023/07/13 20:19:12;;;;;;;;;;;;;;;5.98;100.00;99907.94;4982591;28;20020;-82
2023/07/13 20:21:37;;;;;;;;;;;;;;;6.03;100.00;99909.56;5002526;28;19925;-85